Terminal Aerodrome Forecast
Issued by NWS

Home | Current Version | Previous Version | Text Only | Print | Product List | Glossary On
Versions: 1 2 3 4 5 6 7 8 9 10 11 12
000
FTUS45 KGGW 302320
TAFGDV
TAF
KGDV 302320Z 0100/0124 23009G19KT P6SM BKN080
     FM010500 VRB06KT P6SM VCSH BKN060
     FM011500 31020G28KT P6SM VCSH BKN035=

USA.gov is the U.S. government's official web portal to all federal, state and local government web resources and services.